Station Historical Data
Daily Summary for February 19, 2012 Units:  Both    English   Metric
« Previous Day
Next Day »
Daily Weekly Monthly Yearly Custom
  High: Low: Average:
Temperature: 48.0 °F /  8.9 °C 32.7 °F /  0.4 °C 40.4 °F /  4.7 °C
Dew Point: 40.2 °F /  4.6 °C 29.5 °F /  -1.4 °C 36.6 °F /  2.6 °C
Humidity: 96% 62% 87%
Wind Speed: 16.0mph /  25.7km/h - 7mph /  11.3km/h
Wind Gust: 20.0mph /  32.2km/h - -
Wind- - SW
Pressure: 30.12 in /  1019.9 hPa 29.79 in /  1008.7 hPa -
Precipitation: 0.66 in /  16.76 mm    
Historical Graphs
 
 
Tabular Data for February 19, 2012
Time Temperature Dew Point Pressure Wind Wind Speed Wind Gust Humidity Rainfall Rate (Hourly) Conditions
00:00 47.8 °F /  8.8 °C 35.8 °F /  2.1 °C 29.85in /  1010.7hPa ENE 8.0mph /  12.9km/h 9.0mph /  14.5km/h 63% 0.00in /  0mm
00:05 47.9 °F /  8.8 °C 35.9 °F /  2.2 °C 29.85in /  1010.7hPa NNE 7.0mph /  11.3km/h 10.0mph /  16.1km/h 63% 0.00in /  0mm
00:10 47.9 °F /  8.8 °C 35.9 °F /  2.2 °C 29.85in /  1010.7hPa NE 6.0mph /  9.7km/h 8.0mph /  12.9km/h 63% 0.00in /  0mm
00:15 47.9 °F /  8.8 °C 35.9 °F /  2.2 °C 29.85in /  1010.7hPa NE 4.0mph /  6.4km/h 10.0mph /  16.1km/h 63% 0.00in /  0mm
00:20 47.9 °F /  8.8 °C 35.9 °F /  2.2 °C 29.84in /  1010.4hPa NNE 8.0mph /  12.9km/h 8.0mph /  12.9km/h 63% 0.00in /  0mm
00:25 47.9 °F /  8.8 °C 35.9 °F /  2.2 °C 29.85in /  1010.7hPa NE 9.0mph /  14.5km/h 9.0mph /  14.5km/h 63% 0.00in /  0mm
00:30 48.0 °F /  8.9 °C 35.6 °F /  2 °C 29.85in /  1010.7hPa NNE 10.0mph /  16.1km/h 10.0mph /  16.1km/h 62% 0.00in /  0mm
00:35 48.0 °F /  8.9 °C 35.6 °F /  2 °C 29.84in /  1010.4hPa NNE 5.0mph /  8km/h 9.0mph /  14.5km/h 62% 0.00in /  0mm
00:40 48.0 °F /  8.9 °C 36.0 °F /  2.2 °C 29.84in /  1010.4hPa NNE 8.0mph /  12.9km/h 10.0mph /  16.1km/h 63% 0.00in /  0mm
00:42 48.0 °F /  8.9 °C 35.6 °F /  2 °C 29.85in /  1010.7hPa NNE 5.0mph /  8km/h 10.0mph /  16.1km/h 62% 0.00in /  0mm
00:47 47.9 °F /  8.8 °C 35.9 °F /  2.2 °C 29.84in /  1010.4hPa NNE 5.0mph /  8km/h 7.0mph /  11.3km/h 63% 0.00in /  0mm
00:52 47.8 °F /  8.8 °C 36.2 °F /  2.3 °C 29.84in /  1010.4hPa North 6.0mph /  9.7km/h 8.0mph /  12.9km/h 64% 0.00in /  0mm
00:57 47.7 °F /  8.7 °C 36.1 °F /  2.3 °C 29.85in /  1010.7hPa North 4.0mph /  6.4km/h 9.0mph /  14.5km/h 64% 0.00in /  0mm
01:02 47.5 °F /  8.6 °C 36.7 °F /  2.6 °C 29.85in /  1010.7hPa North 6.0mph /  9.7km/h 7.0mph /  11.3km/h 66% 0.00in /  0mm
01:07 47.4 °F /  8.6 °C 36.6 °F /  2.6 °C 29.85in /  1010.7hPa NNE 7.0mph /  11.3km/h 7.0mph /  11.3km/h 66% 0.00in /  0mm
01:12 47.3 °F /  8.5 °C 36.9 °F /  2.7 °C 29.85in /  1010.7hPa NNE 6.0mph /  9.7km/h 8.0mph /  12.9km/h 67% 0.00in /  0mm
01:17 46.6 °F /  8.1 °C 37.7 °F /  3.2 °C 29.85in /  1010.7hPa North 5.0mph /  8km/h 10.0mph /  16.1km/h 71% 0.00in /  0mm
01:22 46.0 °F /  7.8 °C 38.5 °F /  3.6 °C 29.84in /  1010.4hPa NNE 10.0mph /  16.1km/h 11.0mph /  17.7km/h 75% 0.00in /  0mm
01:27 45.4 °F /  7.4 °C 39.3 °F /  4.1 °C 29.84in /  1010.4hPa North 8.0mph /  12.9km/h 9.0mph /  14.5km/h 79% 0.00in /  0mm
01:32 44.8 °F /  7.1 °C 39.7 °F /  4.3 °C 29.84in /  1010.4hPa North 11.0mph /  17.7km/h 11.0mph /  17.7km/h 82% 0.00in /  0mm
01:37 44.4 °F /  6.9 °C 39.6 °F /  4.2 °C 29.84in /  1010.4hPa NNE 9.0mph /  14.5km/h 10.0mph /  16.1km/h 83% 0.00in /  0mm
01:42 44.1 °F /  6.7 °C 39.9 °F /  4.4 °C 29.84in /  1010.4hPa NNE 9.0mph /  14.5km/h 9.0mph /  14.5km/h 85% 0.00in /  0mm
01:47 43.9 °F /  6.6 °C 40.0 °F /  4.4 °C 29.84in /  1010.4hPa North 4.0mph /  6.4km/h 11.0mph /  17.7km/h 86% 0.00in /  0mm
01:52 43.8 °F /  6.6 °C 39.9 °F /  4.4 °C 29.84in /  1010.4hPa NNE 6.0mph /  9.7km/h 10.0mph /  16.1km/h 86% 0.00in /  0mm
01:57 43.7 °F /  6.5 °C 39.8 °F /  4.3 °C 29.84in /  1010.4hPa NNE 9.0mph /  14.5km/h 10.0mph /  16.1km/h 86% 0.00in /  0mm
02:02 43.7 °F /  6.5 °C 39.8 °F /  4.3 °C 29.84in /  1010.4hPa NNE 9.0mph /  14.5km/h 10.0mph /  16.1km/h 86% 0.00in /  0mm
02:07 43.7 °F /  6.5 °C 39.8 °F /  4.3 °C 29.83in /  1010hPa NW 5.0mph /  8km/h 11.0mph /  17.7km/h 86% 0.00in /  0mm
02:12 43.5 °F /  6.4 °C 39.9 °F /  4.4 °C 29.83in /  1010hPa North 7.0mph /  11.3km/h 9.0mph /  14.5km/h 87% 0.00in /  0mm
02:17 43.5 °F /  6.4 °C 40.2 °F /  4.6 °C 29.83in /  1010hPa NNE 4.0mph /  6.4km/h 8.0mph /  12.9km/h 88% 0.00in /  0mm
02:22 43.5 °F /  6.4 °C 40.2 °F /  4.6 °C 29.83in /  1010hPa North 6.0mph /  9.7km/h 8.0mph /  12.9km/h 88% 0.00in /  0mm
02:27 43.5 °F /  6.4 °C 40.2 °F /  4.6 °C 29.83in /  1010hPa NNE 6.0mph /  9.7km/h 10.0mph /  16.1km/h 88% 0.00in /  0mm
02:32 43.5 °F /  6.4 °C 40.2 °F /  4.6 °C 29.83in /  1010hPa NNE 5.0mph /  8km/h 11.0mph /  17.7km/h 88% 0.00in /  0mm
02:37 43.5 °F /  6.4 °C 40.2 °F /  4.6 °C 29.83in /  1010hPa NNW 6.0mph /  9.7km/h 8.0mph /  12.9km/h 88% 0.00in /  0mm
02:42 43.5 °F /  6.4 °C 40.2 °F /  4.6 °C 29.83in /  1010hPa North 4.0mph /  6.4km/h 9.0mph /  14.5km/h 88% 0.00in /  0mm
02:47 43.4 °F /  6.3 °C 40.1 °F /  4.5 °C 29.83in /  1010hPa NNW 7.0mph /  11.3km/h 8.0mph /  12.9km/h 88% 0.00in /  0mm
02:52 43.3 °F /  6.3 °C 40.0 °F /  4.4 °C 29.83in /  1010hPa North 5.0mph /  8km/h 9.0mph /  14.5km/h 88% 0.00in /  0mm
02:57 43.2 °F /  6.2 °C 40.2 °F /  4.6 °C 29.83in /  1010hPa NNW 4.0mph /  6.4km/h 7.0mph /  11.3km/h 89% 0.00in /  0mm
03:02 43.2 °F /  6.2 °C 40.2 °F /  4.6 °C 29.83in /  1010hPa NNW 6.0mph /  9.7km/h 9.0mph /  14.5km/h 89% 0.00in /  0mm
03:07 43.2 °F /  6.2 °C 40.2 °F /  4.6 °C 29.83in /  1010hPa NNW 7.0mph /  11.3km/h 7.0mph /  11.3km/h 89% 0.00in /  0mm
03:12 43.2 °F /  6.2 °C 40.2 °F /  4.6 °C 29.83in /  1010hPa NNE 10.0mph /  16.1km/h 10.0mph /  16.1km/h 89% 0.00in /  0mm
03:17 43.2 °F /  6.2 °C 40.2 °F /  4.6 °C 29.83in /  1010hPa North 8.0mph /  12.9km/h 11.0mph /  17.7km/h 89% 0.00in /  0mm
03:22 43.2 °F /  6.2 °C 40.2 °F /  4.6 °C 29.82in /  1009.7hPa NNW 8.0mph /  12.9km/h 11.0mph /  17.7km/h 89% 0.00in /  0mm
03:27 43.2 °F /  6.2 °C 40.2 °F /  4.6 °C 29.81in /  1009.4hPa NNE 10.0mph /  16.1km/h 13.0mph /  20.9km/h 89% 0.00in /  0mm
03:32 43.2 °F /  6.2 °C 40.2 °F /  4.6 °C 29.81in /  1009.4hPa NNE 8.0mph /  12.9km/h 14.0mph /  22.5km/h 89% 0.00in /  0mm
03:37 43.3 °F /  6.3 °C 40.0 °F /  4.4 °C 29.81in /  1009.4hPa North 6.0mph /  9.7km/h 11.0mph /  17.7km/h 88% 0.00in /  0mm
03:43 43.3 °F /  6.3 °C 40.0 °F /  4.4 °C 29.81in /  1009.4hPa North 9.0mph /  14.5km/h 14.0mph /  22.5km/h 88% 0.00in /  0mm
03:48 43.4 °F /  6.3 °C 40.1 °F /  4.5 °C 29.81in /  1009.4hPa North 8.0mph /  12.9km/h 14.0mph /  22.5km/h 88% 0.00in /  0mm
03:53 43.4 °F /  6.3 °C 40.1 °F /  4.5 °C 29.81in /  1009.4hPa North 8.0mph /  12.9km/h 12.0mph /  19.3km/h 88% 0.00in /  0mm
03:58 43.3 °F /  6.3 °C 40.0 °F /  4.4 °C 29.81in /  1009.4hPa NNE 9.0mph /  14.5km/h 10.0mph /  16.1km/h 88% 0.00in /  0mm
04:03 43.3 °F /  6.3 °C 40.0 °F /  4.4 °C 29.81in /  1009.4hPa NNE 8.0mph /  12.9km/h 11.0mph /  17.7km/h 88% 0.00in /  0mm
04:08 43.4 °F /  6.3 °C 40.1 °F /  4.5 °C 29.80in /  1009hPa NNW 7.0mph /  11.3km/h 12.0mph /  19.3km/h 88% 0.00in /  0mm
04:13 43.3 °F /  6.3 °C 40.0 °F /  4.4 °C 29.80in /  1009hPa North 9.0mph /  14.5km/h 13.0mph /  20.9km/h 88% 0.00in /  0mm
04:18 43.3 °F /  6.3 °C 40.0 °F /  4.4 °C 29.79in /  1008.7hPa North 6.0mph /  9.7km/h 18.0mph /  29km/h 88% 0.00in /  0mm
04:23 43.3 °F /  6.3 °C 39.7 °F /  4.3 °C 29.80in /  1009hPa North 10.0mph /  16.1km/h 14.0mph /  22.5km/h 87% 0.00in /  0mm
04:28 43.4 °F /  6.3 °C 39.8 °F /  4.3 °C 29.80in /  1009hPa NNE 8.0mph /  12.9km/h 13.0mph /  20.9km/h 87% 0.00in /  0mm
04:33 43.4 °F /  6.3 °C 39.8 °F /  4.3 °C 29.79in /  1008.7hPa NW 6.0mph /  9.7km/h 12.0mph /  19.3km/h 87% 0.00in /  0mm
04:38 43.5 °F /  6.4 °C 39.9 °F /  4.4 °C 29.79in /  1008.7hPa NNE 6.0mph /  9.7km/h 14.0mph /  22.5km/h 87% 0.00in /  0mm
04:43 43.5 °F /  6.4 °C 39.9 °F /  4.4 °C 29.80in /  1009hPa North 9.0mph /  14.5km/h 12.0mph /  19.3km/h 87% 0.00in /  0mm
04:48 43.5 °F /  6.4 °C 39.9 °F /  4.4 °C 29.80in /  1009hPa North 9.0mph /  14.5km/h 12.0mph /  19.3km/h 87% 0.00in /  0mm
04:53 43.3 °F /  6.3 °C 40.0 °F /  4.4 °C 29.79in /  1008.7hPa NNE 6.0mph /  9.7km/h 11.0mph /  17.7km/h 88% 0.00in /  0mm
04:58 43.1 °F /  6.2 °C 40.1 °F /  4.5 °C 29.79in /  1008.7hPa North 8.0mph /  12.9km/h 19.0mph /  30.6km/h 89% 0.17in /  4.32mm
05:03 42.9 °F /  6.1 °C 40.2 °F /  4.6 °C 29.79in /  1008.7hPa NNE 8.0mph /  12.9km/h 12.0mph /  19.3km/h 90% 0.17in /  4.32mm
05:08 42.6 °F /  5.9 °C 39.9 °F /  4.4 °C 29.79in /  1008.7hPa NNW 6.0mph /  9.7km/h 11.0mph /  17.7km/h 90% 0.24in /  6.1mm
05:13 42.4 °F /  5.8 °C 40.0 °F /  4.4 °C 29.79in /  1008.7hPa NNE 7.0mph /  11.3km/h 12.0mph /  19.3km/h 91% 0.13in /  3.3mm
05:18 42.3 °F /  5.7 °C 40.2 °F /  4.6 °C 29.79in /  1008.7hPa North 9.0mph /  14.5km/h 9.0mph /  14.5km/h 92% 0.16in /  4.06mm
05:23 42.2 °F /  5.7 °C 40.0 °F /  4.4 °C 29.79in /  1008.7hPa NNW 10.0mph /  16.1km/h 12.0mph /  19.3km/h 92% 0.11in /  2.79mm
05:28 42.1 °F /  5.6 °C 40.0 °F /  4.4 °C 29.79in /  1008.7hPa NNE 6.0mph /  9.7km/h 10.0mph /  16.1km/h 92% 0.09in /  2.29mm
05:33 41.9 °F /  5.5 °C 39.8 °F /  4.3 °C 29.79in /  1008.7hPa North 9.0mph /  14.5km/h 11.0mph /  17.7km/h 92% 0.09in /  2.29mm
05:38 41.8 °F /  5.4 °C 39.7 °F /  4.3 °C 29.79in /  1008.7hPa North 9.0mph /  14.5km/h 12.0mph /  19.3km/h 92% 0.09in /  2.29mm
05:43 41.7 °F /  5.4 °C 39.8 °F /  4.3 °C 29.79in /  1008.7hPa NNW 8.0mph /  12.9km/h 12.0mph /  19.3km/h 93% 0.09in /  2.29mm
05:48 41.7 °F /  5.4 °C 39.8 °F /  4.3 °C 29.79in /  1008.7hPa NNE 10.0mph /  16.1km/h 11.0mph /  17.7km/h 93% 0.11in /  2.79mm
05:53 41.6 °F /  5.3 °C 39.7 °F /  4.3 °C 29.79in /  1008.7hPa North 7.0mph /  11.3km/h 13.0mph /  20.9km/h 93% 0.12in /  3.05mm
05:58 41.5 °F /  5.3 °C 39.6 °F /  4.2 °C 29.80in /  1009hPa NE 7.0mph /  11.3km/h 9.0mph /  14.5km/h 93% 0.22in /  5.59mm
06:03 41.4 °F /  5.2 °C 39.5 °F /  4.2 °C 29.80in /  1009hPa North 8.0mph /  12.9km/h 12.0mph /  19.3km/h 93% 0.20in /  5.08mm
06:08 41.3 °F /  5.2 °C 39.4 °F /  4.1 °C 29.79in /  1008.7hPa North 7.0mph /  11.3km/h 10.0mph /  16.1km/h 93% 0.10in /  2.54mm
06:13 41.2 °F /  5.1 °C 39.3 °F /  4.1 °C 29.79in /  1008.7hPa NNW 6.0mph /  9.7km/h 11.0mph /  17.7km/h 93% 0.13in /  3.3mm
06:18 41.1 °F /  5.1 °C 39.2 °F /  4 °C 29.79in /  1008.7hPa NNE 6.0mph /  9.7km/h 11.0mph /  17.7km/h 93% 0.10in /  2.54mm
06:23 40.9 °F /  4.9 °C 39.0 °F /  3.9 °C 29.80in /  1009hPa NNW 7.0mph /  11.3km/h 14.0mph /  22.5km/h 93% 0.07in /  1.78mm
06:28 40.7 °F /  4.8 °C 38.8 °F /  3.8 °C 29.79in /  1008.7hPa NNE 7.0mph /  11.3km/h 12.0mph /  19.3km/h 93% 0.10in /  2.54mm
06:33 40.5 °F /  4.7 °C 38.6 °F /  3.7 °C 29.79in /  1008.7hPa NNE 11.0mph /  17.7km/h 15.0mph /  24.1km/h 93% 0.17in /  4.32mm
06:38 40.3 °F /  4.6 °C 38.4 °F /  3.6 °C 29.79in /  1008.7hPa NNE 8.0mph /  12.9km/h 12.0mph /  19.3km/h 93% 0.14in /  3.56mm
06:43 40.1 °F /  4.5 °C 38.2 °F /  3.4 °C 29.79in /  1008.7hPa NNW 15.0mph /  24.1km/h 15.0mph /  24.1km/h 93% 0.13in /  3.3mm
06:48 40.0 °F /  4.4 °C 38.1 °F /  3.4 °C 29.79in /  1008.7hPa NNE 8.0mph /  12.9km/h 15.0mph /  24.1km/h 93% 0.09in /  2.29mm
06:54 39.9 °F /  4.4 °C 38.0 °F /  3.3 °C 29.79in /  1008.7hPa North 8.0mph /  12.9km/h 17.0mph /  27.4km/h 93% 0.08in /  2.03mm
06:59 39.7 °F /  4.3 °C 38.1 °F /  3.4 °C 29.79in /  1008.7hPa North 8.0mph /  12.9km/h 14.0mph /  22.5km/h 94% 0.07in /  1.78mm
07:04 39.6 °F /  4.2 °C 38.0 °F /  3.3 °C 29.79in /  1008.7hPa NNE 9.0mph /  14.5km/h 13.0mph /  20.9km/h 94% 0.07in /  1.78mm
07:09 39.5 °F /  4.2 °C 37.9 °F /  3.3 °C 29.80in /  1009hPa NNE 8.0mph /  12.9km/h 15.0mph /  24.1km/h 94% 0.06in /  1.52mm
07:14 39.4 °F /  4.1 °C 37.8 °F /  3.2 °C 29.81in /  1009.4hPa NNE 12.0mph /  19.3km/h 14.0mph /  22.5km/h 94% 0.06in /  1.52mm
07:19 39.3 °F /  4.1 °C 37.7 °F /  3.2 °C 29.81in /  1009.4hPa NNE 5.0mph /  8km/h 11.0mph /  17.7km/h 94% 0.05in /  1.27mm
07:24 39.2 °F /  4 °C 37.6 °F /  3.1 °C 29.81in /  1009.4hPa NNE 11.0mph /  17.7km/h 11.0mph /  17.7km/h 94% 0.05in /  1.27mm
07:29 39.1 °F /  3.9 °C 37.5 °F /  3.1 °C 29.81in /  1009.4hPa North 8.0mph /  12.9km/h 13.0mph /  20.9km/h 94% 0.05in /  1.27mm
07:34 39.0 °F /  3.9 °C 37.4 °F /  3 °C 29.81in /  1009.4hPa North 11.0mph /  17.7km/h 11.0mph /  17.7km/h 94% 0.05in /  1.27mm
07:40 38.9 °F /  3.8 °C 37.3 °F /  2.9 °C 29.80in /  1009hPa NNW 7.0mph /  11.3km/h 11.0mph /  17.7km/h 94% 0.05in /  1.27mm
07:45 38.9 °F /  3.8 °C 37.3 °F /  2.9 °C 29.81in /  1009.4hPa NE 9.0mph /  14.5km/h 10.0mph /  16.1km/h 94% 0.06in /  1.52mm
07:50 38.9 °F /  3.8 °C 37.3 °F /  2.9 °C 29.81in /  1009.4hPa North 7.0mph /  11.3km/h 11.0mph /  17.7km/h 94% 0.06in /  1.52mm
07:55 38.8 °F /  3.8 °C 37.2 °F /  2.9 °C 29.81in /  1009.4hPa NNE 10.0mph /  16.1km/h 13.0mph /  20.9km/h 94% 0.04in /  1.02mm
08:00 38.8 °F /  3.8 °C 37.2 °F /  2.9 °C 29.81in /  1009.4hPa NNE 8.0mph /  12.9km/h 12.0mph /  19.3km/h 94% 0.04in /  1.02mm
08:05 38.7 °F /  3.7 °C 37.1 °F /  2.8 °C 29.81in /  1009.4hPa NNE 9.0mph /  14.5km/h 11.0mph /  17.7km/h 94% 0.04in /  1.02mm
08:10 38.7 °F /  3.7 °C 37.1 °F /  2.8 °C 29.82in /  1009.7hPa North 11.0mph /  17.7km/h 14.0mph /  22.5km/h 94% 0.04in /  1.02mm
08:15 38.6 °F /  3.7 °C 37.0 °F /  2.8 °C 29.82in /  1009.7hPa NW 3.0mph /  4.8km/h 13.0mph /  20.9km/h 94% 0.00in /  0mm
08:20 38.5 °F /  3.6 °C 36.9 °F /  2.7 °C 29.82in /  1009.7hPa North 6.0mph /  9.7km/h 10.0mph /  16.1km/h 94% 0.00in /  0mm
08:25 38.5 °F /  3.6 °C 36.9 °F /  2.7 °C 29.83in /  1010hPa NNE 5.0mph /  8km/h 12.0mph /  19.3km/h 94% 0.00in /  0mm
08:31 38.4 °F /  3.6 °C 36.8 °F /  2.7 °C 29.83in /  1010hPa North 13.0mph /  20.9km/h 13.0mph /  20.9km/h 94% 0.08in /  2.03mm
08:36 38.3 °F /  3.5 °C 36.7 °F /  2.6 °C 29.83in /  1010hPa NNE 9.0mph /  14.5km/h 13.0mph /  20.9km/h 94% 0.14in /  3.56mm
08:42 38.2 °F /  3.4 °C 36.6 °F /  2.6 °C 29.84in /  1010.4hPa NNW 5.0mph /  8km/h 13.0mph /  20.9km/h 94% 0.21in /  5.33mm
08:47 38.2 °F /  3.4 °C 36.6 °F /  2.6 °C 29.84in /  1010.4hPa NNE 11.0mph /  17.7km/h 11.0mph /  17.7km/h 94% 0.27in /  6.86mm
08:52 38.1 °F /  3.4 °C 36.8 °F /  2.7 °C 29.84in /  1010.4hPa North 10.0mph /  16.1km/h 13.0mph /  20.9km/h 95% 0.18in /  4.57mm
08:57 38.0 °F /  3.3 °C 36.7 °F /  2.6 °C 29.85in /  1010.7hPa NNW 6.0mph /  9.7km/h 12.0mph /  19.3km/h 95% 0.17in /  4.32mm
09:02 38.0 °F /  3.3 °C 36.7 °F /  2.6 °C 29.85in /  1010.7hPa North 6.0mph /  9.7km/h 9.0mph /  14.5km/h 95% 0.14in /  3.56mm
09:07 37.9 °F /  3.3 °C 36.6 °F /  2.6 °C 29.85in /  1010.7hPa NNW 6.0mph /  9.7km/h 17.0mph /  27.4km/h 95% 0.18in /  4.57mm
09:12 37.8 °F /  3.2 °C 36.5 °F /  2.5 °C 29.85in /  1010.7hPa North 10.0mph /  16.1km/h 13.0mph /  20.9km/h 95% 0.27in /  6.86mm
09:17 37.7 °F /  3.2 °C 36.4 °F /  2.4 °C 29.86in /  1011.1hPa NNW 8.0mph /  12.9km/h 13.0mph /  20.9km/h 95% 0.20in /  5.08mm
09:22 37.6 °F /  3.1 °C 36.3 °F /  2.4 °C 29.86in /  1011.1hPa WNW 7.0mph /  11.3km/h 11.0mph /  17.7km/h 95% 0.15in /  3.81mm
09:27 37.4 °F /  3 °C 36.1 °F /  2.3 °C 29.87in /  1011.4hPa NNW 8.0mph /  12.9km/h 15.0mph /  24.1km/h 95% 0.13in /  3.3mm
09:32 37.3 °F /  2.9 °C 36.0 °F /  2.2 °C 29.87in /  1011.4hPa NW 8.0mph /  12.9km/h 12.0mph /  19.3km/h 95% 0.11in /  2.79mm
09:37 37.2 °F /  2.9 °C 35.6 °F /  2 °C 29.87in /  1011.4hPa NNW 8.0mph /  12.9km/h 16.0mph /  25.7km/h 94% 0.10in /  2.54mm
09:42 37.0 °F /  2.8 °C 35.4 °F /  1.9 °C 29.87in /  1011.4hPa NW 13.0mph /  20.9km/h 14.0mph /  22.5km/h 94% 0.09in /  2.29mm
09:47 36.8 °F /  2.7 °C 35.2 °F /  1.8 °C 29.88in /  1011.7hPa NW 9.0mph /  14.5km/h 15.0mph /  24.1km/h 94% 0.07in /  1.78mm
09:52 36.6 °F /  2.6 °C 35.0 °F /  1.7 °C 29.88in /  1011.7hPa NW 12.0mph /  19.3km/h 19.0mph /  30.6km/h 94% 0.07in /  1.78mm
09:57 36.3 °F /  2.4 °C 34.7 °F /  1.5 °C 29.88in /  1011.7hPa NNW 10.0mph /  16.1km/h 18.0mph /  29km/h 94% 0.08in /  2.03mm
10:02 36.2 °F /  2.3 °C 34.9 °F /  1.6 °C 29.88in /  1011.7hPa NW 12.0mph /  19.3km/h 14.0mph /  22.5km/h 95% 0.09in /  2.29mm
10:07 36.1 °F /  2.3 °C 34.8 °F /  1.6 °C 29.89in /  1012.1hPa North 14.0mph /  22.5km/h 18.0mph /  29km/h 95% 0.09in /  2.29mm
10:12 36.1 °F /  2.3 °C 34.8 °F /  1.6 °C 29.89in /  1012.1hPa NW 12.0mph /  19.3km/h 18.0mph /  29km/h 95% 0.05in /  1.27mm
10:17 36.0 °F /  2.2 °C 34.7 °F /  1.5 °C 29.89in /  1012.1hPa NW 11.0mph /  17.7km/h 17.0mph /  27.4km/h 95% 0.05in /  1.27mm
10:22 35.9 °F /  2.2 °C 34.6 °F /  1.4 °C 29.90in /  1012.4hPa NNW 11.0mph /  17.7km/h 15.0mph /  24.1km/h 95% 0.05in /  1.27mm
10:27 35.9 °F /  2.2 °C 34.6 °F /  1.4 °C 29.90in /  1012.4hPa NNW 10.0mph /  16.1km/h 13.0mph /  20.9km/h 95% 0.06in /  1.52mm
10:32 35.8 °F /  2.1 °C 34.5 °F /  1.4 °C 29.90in /  1012.4hPa NNW 7.0mph /  11.3km/h 15.0mph /  24.1km/h 95% 0.07in /  1.78mm
10:37 35.8 °F /  2.1 °C 34.5 °F /  1.4 °C 29.90in /  1012.4hPa NW 9.0mph /  14.5km/h 11.0mph /  17.7km/h 95% 0.07in /  1.78mm
10:42 35.8 °F /  2.1 °C 34.5 °F /  1.4 °C 29.90in /  1012.4hPa NNW 8.0mph /  12.9km/h 15.0mph /  24.1km/h 95% 0.06in /  1.52mm
10:48 35.9 °F /  2.2 °C 34.6 °F /  1.4 °C 29.89in /  1012.1hPa NNW 10.0mph /  16.1km/h 15.0mph /  24.1km/h 95% 0.05in /  1.27mm
10:52 36.1 °F /  2.3 °C 34.8 °F /  1.6 °C 29.90in /  1012.4hPa NW 7.0mph /  11.3km/h 16.0mph /  25.7km/h 95% 0.05in /  1.27mm
10:58 36.3 °F /  2.4 °C 35.3 °F /  1.8 °C 29.90in /  1012.4hPa North 12.0mph /  19.3km/h 12.0mph /  19.3km/h 96% 0.05in /  1.27mm
11:03 36.3 °F /  2.4 °C 35.0 °F /  1.7 °C 29.90in /  1012.4hPa North 9.0mph /  14.5km/h 17.0mph /  27.4km/h 95% 0.05in /  1.27mm
11:08 36.5 °F /  2.5 °C 35.2 °F /  1.8 °C 29.90in /  1012.4hPa North 11.0mph /  17.7km/h 12.0mph /  19.3km/h 95% 0.06in /  1.52mm
11:13 36.6 °F /  2.6 °C 35.3 °F /  1.8 °C 29.90in /  1012.4hPa NNW 13.0mph /  20.9km/h 15.0mph /  24.1km/h 95% 0.06in /  1.52mm
11:18 36.6 °F /  2.6 °C 35.3 °F /  1.8 °C 29.90in /  1012.4hPa NNW 8.0mph /  12.9km/h 16.0mph /  25.7km/h 95% 0.05in /  1.27mm
11:23 36.8 °F /  2.7 °C 35.5 °F /  1.9 °C 29.90in /  1012.4hPa North 5.0mph /  8km/h 16.0mph /  25.7km/h 95% 0.00in /  0mm
11:28 37.0 °F /  2.8 °C 35.7 °F /  2.1 °C 29.90in /  1012.4hPa NNW 12.0mph /  19.3km/h 16.0mph /  25.7km/h 95% 0.00in /  0mm
11:33 37.0 °F /  2.8 °C 35.7 °F /  2.1 °C 29.91in /  1012.8hPa NNW 14.0mph /  22.5km/h 18.0mph /  29km/h 95% 0.00in /  0mm
11:38 37.1 °F /  2.8 °C 35.8 °F /  2.1 °C 29.91in /  1012.8hPa North 10.0mph /  16.1km/h 13.0mph /  20.9km/h 95% 0.00in /  0mm
11:43 36.9 °F /  2.7 °C 35.6 °F /  2 °C 29.91in /  1012.8hPa NW 9.0mph /  14.5km/h 17.0mph /  27.4km/h 95% 0.00in /  0mm
11:48 37.1 °F /  2.8 °C 35.8 °F /  2.1 °C 29.91in /  1012.8hPa NW 10.0mph /  16.1km/h 20.0mph /  32.2km/h 95% 0.00in /  0mm
11:53 37.1 °F /  2.8 °C 35.8 °F /  2.1 °C 29.91in /  1012.8hPa NW 7.0mph /  11.3km/h 15.0mph /  24.1km/h 95% 0.00in /  0mm
11:58 37.0 °F /  2.8 °C 35.7 °F /  2.1 °C 29.91in /  1012.8hPa NNW 12.0mph /  19.3km/h 16.0mph /  25.7km/h 95% 0.00in /  0mm
12:03 37.1 °F /  2.8 °C 35.8 °F /  2.1 °C 29.91in /  1012.8hPa NW 10.0mph /  16.1km/h 15.0mph /  24.1km/h 95% 0.00in /  0mm
12:08 37.1 °F /  2.8 °C 35.8 °F /  2.1 °C 29.91in /  1012.8hPa NNW 9.0mph /  14.5km/h 17.0mph /  27.4km/h 95% 0.00in /  0mm
12:13 37.5 °F /  3.1 °C 36.2 °F /  2.3 °C 29.91in /  1012.8hPa NW 7.0mph /  11.3km/h 14.0mph /  22.5km/h 95% 0.00in /  0mm
12:18 37.7 °F /  3.2 °C 36.4 °F /  2.4 °C 29.91in /  1012.8hPa WNW 9.0mph /  14.5km/h 17.0mph /  27.4km/h 95% 0.00in /  0mm
12:23 37.7 °F /  3.2 °C 36.4 °F /  2.4 °C 29.92in /  1013.1hPa WNW 9.0mph /  14.5km/h 16.0mph /  25.7km/h 95% 0.00in /  0mm
12:28 37.8 °F /  3.2 °C 36.5 °F /  2.5 °C 29.92in /  1013.1hPa NW 9.0mph /  14.5km/h 12.0mph /  19.3km/h 95% 0.00in /  0mm
12:33 37.7 °F /  3.2 °C 36.4 °F /  2.4 °C 29.92in /  1013.1hPa NNW 13.0mph /  20.9km/h 15.0mph /  24.1km/h 95% 0.00in /  0mm
12:38 37.9 °F /  3.3 °C 36.6 °F /  2.6 °C 29.92in /  1013.1hPa North 9.0mph /  14.5km/h 15.0mph /  24.1km/h 95% 0.00in /  0mm
12:44 38.3 °F /  3.5 °C 37.0 °F /  2.8 °C 29.92in /  1013.1hPa NW 14.0mph /  22.5km/h 14.0mph /  22.5km/h 95% 0.00in /  0mm
12:49 38.7 °F /  3.7 °C 37.4 °F /  3 °C 29.92in /  1013.1hPa NW 10.0mph /  16.1km/h 16.0mph /  25.7km/h 95% 0.00in /  0mm
12:54 38.8 °F /  3.8 °C 37.2 °F /  2.9 °C 29.93in /  1013.4hPa NNW 7.0mph /  11.3km/h 11.0mph /  17.7km/h 94% 0.00in /  0mm
12:59 39.0 °F /  3.9 °C 37.7 °F /  3.2 °C 29.92in /  1013.1hPa WNW 8.0mph /  12.9km/h 17.0mph /  27.4km/h 95% 0.00in /  0mm
13:04 39.1 °F /  3.9 °C 37.5 °F /  3.1 °C 29.92in /  1013.1hPa NW 9.0mph /  14.5km/h 17.0mph /  27.4km/h 94% 0.00in /  0mm
13:09 39.0 °F /  3.9 °C 37.4 °F /  3 °C 29.93in /  1013.4hPa NNW 9.0mph /  14.5km/h 14.0mph /  22.5km/h 94% 0.00in /  0mm
13:14 39.3 °F /  4.1 °C 38.0 °F /  3.3 °C 29.93in /  1013.4hPa NW 9.0mph /  14.5km/h 12.0mph /  19.3km/h 95% 0.00in /  0mm
13:19 39.3 °F /  4.1 °C 37.7 °F /  3.2 °C 29.93in /  1013.4hPa NNW 8.0mph /  12.9km/h 12.0mph /  19.3km/h 94% 0.00in /  0mm
13:24 39.2 °F /  4 °C 37.3 °F /  2.9 °C 29.93in /  1013.4hPa NNW 12.0mph /  19.3km/h 18.0mph /  29km/h 93% 0.00in /  0mm
13:29 39.3 °F /  4.1 °C 37.5 °F /  3.1 °C 29.93in /  1013.4hPa NNW 15.0mph /  24.1km/h 15.0mph /  24.1km/h 93% 0.00in /  0mm
13:34 39.5 °F /  4.2 °C 37.7 °F /  3.2 °C 29.93in /  1013.4hPa NNW 11.0mph /  17.7km/h 17.0mph /  27.4km/h 93% 0.00in /  0mm
13:39 39.7 °F /  4.3 °C 37.8 °F /  3.2 °C 29.93in /  1013.4hPa WNW 9.0mph /  14.5km/h 14.0mph /  22.5km/h 93% 0.00in /  0mm
13:44 39.9 °F /  4.4 °C 38.0 °F /  3.3 °C 29.93in /  1013.4hPa NNW 13.0mph /  20.9km/h 17.0mph /  27.4km/h 93% 0.00in /  0mm
13:49 40.5 °F /  4.7 °C 38.6 °F /  3.7 °C 29.93in /  1013.4hPa NNW 12.0mph /  19.3km/h 12.0mph /  19.3km/h 93% 0.00in /  0mm
13:54 40.9 °F /  4.9 °C 38.8 °F /  3.8 °C 29.93in /  1013.4hPa NW 8.0mph /  12.9km/h 18.0mph /  29km/h 92% 0.00in /  0mm
13:59 41.5 °F /  5.3 °C 39.3 °F /  4.1 °C 29.94in /  1013.8hPa NW 11.0mph /  17.7km/h 13.0mph /  20.9km/h 92% 0.00in /  0mm
14:04 42.1 °F /  5.6 °C 39.7 °F /  4.3 °C 29.93in /  1013.4hPa North 10.0mph /  16.1km/h 16.0mph /  25.7km/h 91% 0.00in /  0mm
14:09 42.2 °F /  5.7 °C 39.2 °F /  4 °C 29.93in /  1013.4hPa NW 10.0mph /  16.1km/h 15.0mph /  24.1km/h 89% 0.00in /  0mm
14:14 42.1 °F /  5.6 °C 39.1 °F /  3.9 °C 29.93in /  1013.4hPa NW 8.0mph /  12.9km/h 11.0mph /  17.7km/h 89% 0.00in /  0mm
14:19 42.4 °F /  5.8 °C 39.7 °F /  4.3 °C 29.93in /  1013.4hPa North 13.0mph /  20.9km/h 20.0mph /  32.2km/h 90% 0.00in /  0mm
14:24 42.6 °F /  5.9 °C 39.0 °F /  3.9 °C 29.92in /  1013.1hPa North 15.0mph /  24.1km/h 16.0mph /  25.7km/h 87% 0.00in /  0mm
14:29 42.5 °F /  5.8 °C 38.6 °F /  3.7 °C 29.93in /  1013.4hPa NW 12.0mph /  19.3km/h 16.0mph /  25.7km/h 86% 0.00in /  0mm
14:34 42.5 °F /  5.8 °C 38.6 °F /  3.7 °C 29.93in /  1013.4hPa NNW 8.0mph /  12.9km/h 16.0mph /  25.7km/h 86% 0.00in /  0mm
14:39 42.6 °F /  5.9 °C 38.7 °F /  3.7 °C 29.92in /  1013.1hPa NNW 11.0mph /  17.7km/h 15.0mph /  24.1km/h 86% 0.00in /  0mm
14:44 42.4 °F /  5.8 °C 38.2 °F /  3.4 °C 29.92in /  1013.1hPa NW 10.0mph /  16.1km/h 16.0mph /  25.7km/h 85% 0.00in /  0mm
14:49 42.5 °F /  5.8 °C 38.6 °F /  3.7 °C 29.92in /  1013.1hPa NW 12.0mph /  19.3km/h 16.0mph /  25.7km/h 86% 0.00in /  0mm
14:54 42.5 °F /  5.8 °C 38.3 °F /  3.5 °C 29.92in /  1013.1hPa NNW 16.0mph /  25.7km/h 16.0mph /  25.7km/h 85% 0.00in /  0mm
14:59 42.4 °F /  5.8 °C 37.9 °F /  3.3 °C 29.92in /  1013.1hPa NW 8.0mph /  12.9km/h 14.0mph /  22.5km/h 84% 0.00in /  0mm
15:04 42.4 °F /  5.8 °C 38.2 °F /  3.4 °C 29.93in /  1013.4hPa NNW 8.0mph /  12.9km/h 16.0mph /  25.7km/h 85% 0.00in /  0mm
15:09 42.2 °F /  5.7 °C 38.0 °F /  3.3 °C 29.93in /  1013.4hPa WNW 9.0mph /  14.5km/h 13.0mph /  20.9km/h 85% 0.00in /  0mm
15:14 42.2 °F /  5.7 °C 38.0 °F /  3.3 °C 29.93in /  1013.4hPa NNW 6.0mph /  9.7km/h 14.0mph /  22.5km/h 85% 0.00in /  0mm
15:19 42.3 °F /  5.7 °C 38.1 °F /  3.4 °C 29.94in /  1013.8hPa NNW 10.0mph /  16.1km/h 12.0mph /  19.3km/h 85% 0.00in /  0mm
15:24 42.2 °F /  5.7 °C 38.0 °F /  3.3 °C 29.94in /  1013.8hPa NNW 6.0mph /  9.7km/h 15.0mph /  24.1km/h 85% 0.00in /  0mm
15:30 42.4 °F /  5.8 °C 38.2 °F /  3.4 °C 29.94in /  1013.8hPa NNE 9.0mph /  14.5km/h 14.0mph /  22.5km/h 85% 0.00in /  0mm
15:35 42.5 °F /  5.8 °C 38.3 °F /  3.5 °C 29.94in /  1013.8hPa NW 9.0mph /  14.5km/h 11.0mph /  17.7km/h 85% 0.00in /  0mm
15:40 42.7 °F /  5.9 °C 38.8 °F /  3.8 °C 29.94in /  1013.8hPa NNW 6.0mph /  9.7km/h 11.0mph /  17.7km/h 86% 0.00in /  0mm
15:45 43.2 °F /  6.2 °C 39.6 °F /  4.2 °C 29.94in /  1013.8hPa NNW 12.0mph /  19.3km/h 13.0mph /  20.9km/h 87% 0.00in /  0mm
15:50 43.3 °F /  6.3 °C 38.5 °F /  3.6 °C 29.95in /  1014.1hPa NNW 8.0mph /  12.9km/h 16.0mph /  25.7km/h 83% 0.00in /  0mm
15:55 43.9 °F /  6.6 °C 39.7 °F /  4.3 °C 29.95in /  1014.1hPa NNW 7.0mph /  11.3km/h 15.0mph /  24.1km/h 85% 0.00in /  0mm
16:00 44.0 °F /  6.7 °C 38.9 °F /  3.8 °C 29.95in /  1014.1hPa NW 10.0mph /  16.1km/h 14.0mph /  22.5km/h 82% 0.00in /  0mm
16:05 43.5 °F /  6.4 °C 38.7 °F /  3.7 °C 29.96in /  1014.4hPa NNW 8.0mph /  12.9km/h 15.0mph /  24.1km/h 83% 0.00in /  0mm
16:10 43.2 °F /  6.2 °C 38.4 °F /  3.6 °C 29.96in /  1014.4hPa NW 13.0mph /  20.9km/h 14.0mph /  22.5km/h 83% 0.00in /  0mm
16:15 43.0 °F /  6.1 °C 38.5 °F /  3.6 °C 29.96in /  1014.4hPa WNW 13.0mph /  20.9km/h 13.0mph /  20.9km/h 84% 0.00in /  0mm
16:20 43.5 °F /  6.4 °C 38.4 °F /  3.6 °C 29.97in /  1014.8hPa NW 9.0mph /  14.5km/h 12.0mph /  19.3km/h 82% 0.00in /  0mm
16:25 43.5 °F /  6.4 °C 38.1 °F /  3.4 °C 29.97in /  1014.8hPa NW 7.0mph /  11.3km/h 12.0mph /  19.3km/h 81% 0.00in /  0mm
16:30 42.9 °F /  6.1 °C 37.8 °F /  3.2 °C 29.97in /  1014.8hPa NNW 8.0mph /  12.9km/h 14.0mph /  22.5km/h 82% 0.00in /  0mm
16:35 42.9 °F /  6.1 °C 38.1 °F /  3.4 °C 29.97in /  1014.8hPa NW 6.0mph /  9.7km/h 13.0mph /  20.9km/h 83% 0.00in /  0mm
16:40 43.0 °F /  6.1 °C 37.9 °F /  3.3 °C 29.97in /  1014.8hPa NW 6.0mph /  9.7km/h 11.0mph /  17.7km/h 82% 0.00in /  0mm
16:46 43.3 °F /  6.3 °C 37.9 °F /  3.3 °C 29.98in /  1015.1hPa NW 9.0mph /  14.5km/h 11.0mph /  17.7km/h 81% 0.00in /  0mm
16:51 43.3 °F /  6.3 °C 37.9 °F /  3.3 °C 29.98in /  1015.1hPa NW 11.0mph /  17.7km/h 11.0mph /  17.7km/h 81% 0.00in /  0mm
16:56 43.3 °F /  6.3 °C 37.6 °F /  3.1 °C 29.98in /  1015.1hPa WNW 7.0mph /  11.3km/h 11.0mph /  17.7km/h 80% 0.00in /  0mm
17:01 43.4 °F /  6.3 °C 37.7 °F /  3.2 °C 29.98in /  1015.1hPa NNW 8.0mph /  12.9km/h 12.0mph /  19.3km/h 80% 0.00in /  0mm
17:06 43.4 °F /  6.3 °C 37.7 °F /  3.2 °C 29.98in /  1015.1hPa NW 10.0mph /  16.1km/h 12.0mph /  19.3km/h 80% 0.00in /  0mm
17:11 43.2 °F /  6.2 °C 37.1 °F /  2.8 °C 29.98in /  1015.1hPa NW 6.0mph /  9.7km/h 12.0mph /  19.3km/h 79% 0.00in /  0mm
17:16 42.9 °F /  6.1 °C 36.8 °F /  2.7 °C 29.98in /  1015.1hPa NW 7.0mph /  11.3km/h 10.0mph /  16.1km/h 79% 0.00in /  0mm
17:21 43.1 °F /  6.2 °C 37.0 °F /  2.8 °C 29.99in /  1015.5hPa NW 4.0mph /  6.4km/h 11.0mph /  17.7km/h 79% 0.00in /  0mm
17:26 43.4 °F /  6.3 °C 37.0 °F /  2.8 °C 30.00in /  1015.8hPa North 7.0mph /  11.3km/h 9.0mph /  14.5km/h 78% 0.00in /  0mm
17:31 43.5 °F /  6.4 °C 37.4 °F /  3 °C 30.00in /  1015.8hPa NW 4.0mph /  6.4km/h 8.0mph /  12.9km/h 79% 0.00in /  0mm
17:36 43.6 °F /  6.4 °C 36.9 °F /  2.7 °C 30.00in /  1015.8hPa NW 4.0mph /  6.4km/h 10.0mph /  16.1km/h 77% 0.00in /  0mm
17:41 43.6 °F /  6.4 °C 36.9 °F /  2.7 °C 30.00in /  1015.8hPa WNW 8.0mph /  12.9km/h 10.0mph /  16.1km/h 77% 0.00in /  0mm
17:46 43.7 °F /  6.5 °C 37.0 °F /  2.8 °C 30.00in /  1015.8hPa NNW 3.0mph /  4.8km/h 9.0mph /  14.5km/h 77% 0.00in /  0mm
17:51 43.6 °F /  6.4 °C 36.9 °F /  2.7 °C 30.01in /  1016.1hPa NW 4.0mph /  6.4km/h 9.0mph /  14.5km/h 77% 0.00in /  0mm
17:56 43.5 °F /  6.4 °C 36.8 °F /  2.7 °C 30.01in /  1016.1hPa NW 5.0mph /  8km/h 8.0mph /  12.9km/h 77% 0.00in /  0mm
18:01 43.3 °F /  6.3 °C 36.6 °F /  2.6 °C 30.00in /  1015.8hPa NNW 8.0mph /  12.9km/h 8.0mph /  12.9km/h 77% 0.00in /  0mm
18:06 43.0 °F /  6.1 °C 36.3 °F /  2.4 °C 30.01in /  1016.1hPa NNW 4.0mph /  6.4km/h 6.0mph /  9.7km/h 77% 0.00in /  0mm
18:11 42.9 °F /  6.1 °C 36.2 °F /  2.3 °C 30.01in /  1016.1hPa NW 4.0mph /  6.4km/h 9.0mph /  14.5km/h 77% 0.00in /  0mm
18:16 42.7 °F /  5.9 °C 36.0 °F /  2.2 °C 30.01in /  1016.1hPa NW 4.0mph /  6.4km/h 5.0mph /  8km/h 77% 0.00in /  0mm
18:21 42.6 °F /  5.9 °C 35.9 °F /  2.2 °C 30.02in /  1016.5hPa NNW 6.0mph /  9.7km/h 6.0mph /  9.7km/h 77% 0.00in /  0mm
18:26 42.3 °F /  5.7 °C 35.6 °F /  2 °C 30.02in /  1016.5hPa NNW 3.0mph /  4.8km/h 6.0mph /  9.7km/h 77% 0.00in /  0mm
18:31 41.9 °F /  5.5 °C 35.5 °F /  1.9 °C 30.02in /  1016.5hPa NNW 3.0mph /  4.8km/h 5.0mph /  8km/h 78% 0.00in /  0mm
18:37 41.7 °F /  5.4 °C 35.4 °F /  1.9 °C 30.03in /  1016.8hPa NW 7.0mph /  11.3km/h 7.0mph /  11.3km/h 78% 0.00in /  0mm
18:42 41.5 °F /  5.3 °C 35.2 °F /  1.8 °C 30.03in /  1016.8hPa NW 6.0mph /  9.7km/h 6.0mph /  9.7km/h 78% 0.00in /  0mm
18:47 41.4 °F /  5.2 °C 35.1 °F /  1.7 °C 30.04in /  1017.2hPa NNW 4.0mph /  6.4km/h 4.0mph /  6.4km/h 78% 0.00in /  0mm
18:52 41.3 °F /  5.2 °C 35.0 °F /  1.7 °C 30.04in /  1017.2hPa NW 4.0mph /  6.4km/h 6.0mph /  9.7km/h 78% 0.00in /  0mm
18:57 41.0 °F /  5 °C 35.0 °F /  1.7 °C 30.04in /  1017.2hPa NW 4.0mph /  6.4km/h 5.0mph /  8km/h 79% 0.00in /  0mm
19:02 40.9 °F /  4.9 °C 34.9 °F /  1.6 °C 30.04in /  1017.2hPa NNW 5.0mph /  8km/h 5.0mph /  8km/h 79% 0.00in /  0mm
19:07 40.7 °F /  4.8 °C 34.7 °F /  1.5 °C 30.05in /  1017.5hPa NW 4.0mph /  6.4km/h 5.0mph /  8km/h 79% 0.00in /  0mm
19:12 40.8 °F /  4.9 °C 34.8 °F /  1.6 °C 30.05in /  1017.5hPa NW 4.0mph /  6.4km/h 5.0mph /  8km/h 79% 0.00in /  0mm
19:17 40.7 °F /  4.8 °C 35.0 °F /  1.7 °C 30.05in /  1017.5hPa North 5.0mph /  8km/h 5.0mph /  8km/h 80% 0.00in /  0mm
19:22 40.5 °F /  4.7 °C 34.8 °F /  1.6 °C 30.05in /  1017.5hPa NNW 5.0mph /  8km/h 6.0mph /  9.7km/h 80% 0.00in /  0mm
19:27 40.4 °F /  4.7 °C 34.7 °F /  1.5 °C 30.06in /  1017.8hPa NNW 3.0mph /  4.8km/h 6.0mph /  9.7km/h 80% 0.00in /  0mm
19:32 40.2 °F /  4.6 °C 34.5 °F /  1.4 °C 30.06in /  1017.8hPa NW 3.0mph /  4.8km/h 5.0mph /  8km/h 80% 0.00in /  0mm
19:37 39.9 °F /  4.4 °C 34.5 °F /  1.4 °C 30.06in /  1017.8hPa NNW 4.0mph /  6.4km/h 5.0mph /  8km/h 81% 0.00in /  0mm
19:42 39.9 °F /  4.4 °C 34.2 °F /  1.2 °C 30.06in /  1017.8hPa NNW 3.0mph /  4.8km/h 5.0mph /  8km/h 80% 0.00in /  0mm
19:47 39.8 °F /  4.3 °C 34.1 °F /  1.2 °C 30.07in /  1018.2hPa NNW 4.0mph /  6.4km/h 5.0mph /  8km/h 80% 0.00in /  0mm
19:52 39.5 °F /  4.2 °C 34.2 °F /  1.2 °C 30.07in /  1018.2hPa NW 3.0mph /  4.8km/h 3.0mph /  4.8km/h 81% 0.00in /  0mm
19:57 39.3 °F /  4.1 °C 34.0 °F /  1.1 °C 30.08in /  1018.5hPa NW 2.0mph /  3.2km/h 3.0mph /  4.8km/h 81% 0.00in /  0mm
20:02 39.2 °F /  4 °C 34.2 °F /  1.2 °C 30.08in /  1018.5hPa NW 2.0mph /  3.2km/h 3.0mph /  4.8km/h 82% 0.00in /  0mm
20:07 39.1 °F /  3.9 °C 34.1 °F /  1.2 °C 30.08in /  1018.5hPa NW 2.0mph /  3.2km/h 3.0mph /  4.8km/h 82% 0.00in /  0mm
20:12 39.1 °F /  3.9 °C 34.1 °F /  1.2 °C 30.08in /  1018.5hPa NW 5.0mph /  8km/h 6.0mph /  9.7km/h 82% 0.00in /  0mm
20:17 38.8 °F /  3.8 °C 33.8 °F /  1 °C 30.08in /  1018.5hPa NNW 3.0mph /  4.8km/h 5.0mph /  8km/h 82% 0.00in /  0mm
20:22 38.5 °F /  3.6 °C 33.5 °F /  0.8 °C 30.08in /  1018.5hPa NNW 3.0mph /  4.8km/h 5.0mph /  8km/h 82% 0.00in /  0mm
20:27 38.4 °F /  3.6 °C 33.4 °F /  0.8 °C 30.08in /  1018.5hPa NNW 3.0mph /  4.8km/h 5.0mph /  8km/h 82% 0.00in /  0mm
20:32 38.3 °F /  3.5 °C 33.3 °F /  0.7 °C 30.07in /  1018.2hPa NNW 4.0mph /  6.4km/h 6.0mph /  9.7km/h 82% 0.00in /  0mm
20:38 38.1 °F /  3.4 °C 33.1 °F /  0.6 °C 30.07in /  1018.2hPa NNW 4.0mph /  6.4km/h 5.0mph /  8km/h 82% 0.00in /  0mm
20:43 38.1 °F /  3.4 °C 33.1 °F /  0.6 °C 30.08in /  1018.5hPa NNW 3.0mph /  4.8km/h 5.0mph /  8km/h 82% 0.00in /  0mm
20:48 38.0 °F /  3.3 °C 33.3 °F /  0.7 °C 30.08in /  1018.5hPa NNW 3.0mph /  4.8km/h 7.0mph /  11.3km/h 83% 0.00in /  0mm
20:53 38.0 °F /  3.3 °C 33.0 °F /  0.6 °C 30.08in /  1018.5hPa North 3.0mph /  4.8km/h 7.0mph /  11.3km/h 82% 0.00in /  0mm
20:58 37.8 °F /  3.2 °C 32.8 °F /  0.4 °C 30.09in /  1018.8hPa North 3.0mph /  4.8km/h 5.0mph /  8km/h 82% 0.00in /  0mm
21:03 37.7 °F /  3.2 °C 33.0 °F /  0.6 °C 30.09in /  1018.8hPa NW 2.0mph /  3.2km/h 5.0mph /  8km/h 83% 0.00in /  0mm
21:08 37.5 °F /  3.1 °C 32.8 °F /  0.4 °C 30.09in /  1018.8hPa NNW 3.0mph /  4.8km/h 5.0mph /  8km/h 83% 0.00in /  0mm
21:13 37.3 °F /  2.9 °C 32.6 °F /  0.3 °C 30.09in /  1018.8hPa NNW 3.0mph /  4.8km/h 5.0mph /  8km/h 83% 0.00in /  0mm
21:18 37.2 °F /  2.9 °C 32.5 °F /  0.3 °C 30.09in /  1018.8hPa NNW 2.0mph /  3.2km/h 5.0mph /  8km/h 83% 0.00in /  0mm
21:23 36.9 °F /  2.7 °C 32.5 °F /  0.3 °C 30.09in /  1018.8hPa NNW 3.0mph /  4.8km/h 4.0mph /  6.4km/h 84% 0.00in /  0mm
21:28 36.8 °F /  2.7 °C 32.4 °F /  0.2 °C 30.09in /  1018.8hPa North 2.0mph /  3.2km/h 4.0mph /  6.4km/h 84% 0.00in /  0mm
21:33 36.7 °F /  2.6 °C 32.3 °F /  0.2 °C 30.09in /  1018.8hPa NNW 3.0mph /  4.8km/h 5.0mph /  8km/h 84% 0.00in /  0mm
21:38 36.5 °F /  2.5 °C 32.1 °F /  0.1 °C 30.09in /  1018.8hPa North 4.0mph /  6.4km/h 4.0mph /  6.4km/h 84% 0.00in /  0mm
21:43 36.3 °F /  2.4 °C 32.2 °F /  0.1 °C 30.09in /  1018.8hPa North 3.0mph /  4.8km/h 5.0mph /  8km/h 85% 0.00in /  0mm
21:48 36.1 °F /  2.3 °C 32.0 °F /  0 °C 30.08in /  1018.5hPa North 2.0mph /  3.2km/h 3.0mph /  4.8km/h 85% 0.00in /  0mm
21:53 36.0 °F /  2.2 °C 31.9 °F /  -0.1 °C 30.08in /  1018.5hPa NNE 3.0mph /  4.8km/h 5.0mph /  8km/h 85% 0.00in /  0mm
21:58 36.0 °F /  2.2 °C 31.9 °F /  -0.1 °C 30.09in /  1018.8hPa North 2.0mph /  3.2km/h 4.0mph /  6.4km/h 85% 0.00in /  0mm
22:03 35.7 °F /  2.1 °C 31.6 °F /  -0.2 °C 30.09in /  1018.8hPa North 3.0mph /  4.8km/h 3.0mph /  4.8km/h 85% 0.00in /  0mm
22:08 35.5 °F /  1.9 °C 31.5 °F /  -0.3 °C 30.09in /  1018.8hPa NNW 2.0mph /  3.2km/h 3.0mph /  4.8km/h 85% 0.00in /  0mm
22:13 35.4 °F /  1.9 °C 31.6 °F /  -0.2 °C 30.09in /  1018.8hPa North 2.0mph /  3.2km/h 4.0mph /  6.4km/h 86% 0.00in /  0mm
22:18 35.2 °F /  1.8 °C 31.4 °F /  -0.3 °C 30.10in /  1019.2hPa North 2.0mph /  3.2km/h 4.0mph /  6.4km/h 86% 0.00in /  0mm
22:23 35.1 °F /  1.7 °C 31.3 °F /  -0.4 °C 30.09in /  1018.8hPa NNE 2.0mph /  3.2km/h 4.0mph /  6.4km/h 86% 0.00in /  0mm
22:28 35.2 °F /  1.8 °C 31.1 °F /  -0.5 °C 30.09in /  1018.8hPa NNE 4.0mph /  6.4km/h 5.0mph /  8km/h 85% 0.00in /  0mm
22:33 35.2 °F /  1.8 °C 31.1 °F /  -0.5 °C 30.09in /  1018.8hPa NNE 4.0mph /  6.4km/h 5.0mph /  8km/h 85% 0.00in /  0mm
22:39 35.2 °F /  1.8 °C 31.1 °F /  -0.5 °C 30.09in /  1018.8hPa NNE 4.0mph /  6.4km/h 4.0mph /  6.4km/h 85% 0.00in /  0mm
22:44 35.1 °F /  1.7 °C 31.0 °F /  -0.6 °C 30.09in /  1018.8hPa NE 3.0mph /  4.8km/h 5.0mph /  8km/h 85% 0.00in /  0mm
22:49 35.0 °F /  1.7 °C 30.7 °F /  -0.7 °C 30.09in /  1018.8hPa NNE 2.0mph /  3.2km/h 5.0mph /  8km/h 84% 0.00in /  0mm
22:54 34.8 °F /  1.6 °C 30.8 °F /  -0.7 °C 30.09in /  1018.8hPa ENE 4.0mph /  6.4km/h 4.0mph /  6.4km/h 85% 0.00in /  0mm
22:59 34.8 °F /  1.6 °C 30.8 °F /  -0.7 °C 30.09in /  1018.8hPa Calm   4.0mph /  6.4km/h 85% 0.00in /  0mm
23:04 34.7 °F /  1.5 °C 30.7 °F /  -0.7 °C 30.10in /  1019.2hPa NNE 3.0mph /  4.8km/h 3.0mph /  4.8km/h 85% 0.00in /  0mm
23:09 34.6 °F /  1.4 °C 30.6 °F /  -0.8 °C 30.10in /  1019.2hPa North 1.0mph /  1.6km/h 2.0mph /  3.2km/h 85% 0.00in /  0mm
23:14 34.5 °F /  1.4 °C 30.5 °F /  -0.8 °C 30.10in /  1019.2hPa NNE 1.0mph /  1.6km/h 3.0mph /  4.8km/h 85% 0.00in /  0mm
23:19 34.4 °F /  1.3 °C 30.4 °F /  -0.9 °C 30.10in /  1019.2hPa ENE 1.0mph /  1.6km/h 1.0mph /  1.6km/h 85% 0.00in /  0mm
23:24 34.3 °F /  1.3 °C 30.3 °F /  -0.9 °C 30.10in /  1019.2hPa Calm   2.0mph /  3.2km/h 85% 0.00in /  0mm
23:29 34.0 °F /  1.1 °C 30.0 °F /  -1.1 °C 30.10in /  1019.2hPa Calm     85% 0.00in /  0mm
23:34 33.8 °F /  1 °C 29.8 °F /  -1.2 °C 30.10in /  1019.2hPa Calm     85% 0.00in /  0mm
23:39 33.4 °F /  0.8 °C 29.7 °F /  -1.3 °C 30.10in /  1019.2hPa Calm     86% 0.00in /  0mm
23:44 33.3 °F /  0.7 °C 29.9 °F /  -1.2 °C 30.11in /  1019.5hPa Calm     87% 0.00in /  0mm
23:49 33.1 °F /  0.6 °C 29.7 °F /  -1.3 °C 30.11in /  1019.5hPa Calm     87% 0.00in /  0mm
23:54 32.9 °F /  0.5 °C 29.5 °F /  -1.4 °C 30.11in /  1019.5hPa Calm     87% 0.00in /  0mm
23:59 32.7 °F /  0.4 °C 29.8 °F /  -1.2 °C 30.12in /  1019.9hPa Calm     89% 0.00in /  0mm
Compliments of Weather Underground